createdAt,value
2019-05-03T00:01:14.324Z,94507.78
2019-05-03T00:03:43.827Z,94508.80
2019-05-03T00:06:13.749Z,94505.12
2019-05-03T00:08:43.224Z,94502.61
2019-05-03T00:11:12.777Z,94502.80
2019-05-03T00:13:42.267Z,94505.73
2019-05-03T00:16:18.027Z,94505.69
2019-05-03T00:18:47.509Z,94502.77
2019-05-03T00:21:17.013Z,94500.78
2019-05-03T00:23:46.465Z,94503.31
2019-05-03T00:26:15.928Z,94501.19
2019-05-03T00:28:45.403Z,94500.93
2019-05-03T00:31:14.883Z,94497.09
2019-05-03T00:33:46.019Z,94500.72
2019-05-03T00:36:41.931Z,94496.79
2019-05-03T00:39:25.864Z,94505.87
2019-05-03T00:42:06.329Z,94507.42
2019-05-03T00:44:35.807Z,94505.41
2019-05-03T00:47:05.384Z,94510.72
2019-05-03T00:49:34.886Z,94504.67
2019-05-03T00:52:04.380Z,94506.52
2019-05-03T00:54:33.867Z,94504.70
2019-05-03T00:57:03.377Z,94503.02
2019-05-03T00:59:32.849Z,94502.22
2019-05-03T01:02:02.830Z,94509.75
2019-05-03T01:04:32.343Z,94510.95
2019-05-03T01:07:02.332Z,94505.20
2019-05-03T01:09:31.911Z,94508.84
2019-05-03T01:12:01.956Z,94504.97
2019-05-03T01:14:32.044Z,94506.78
2019-05-03T01:17:02.634Z,94515.16
2019-05-03T01:19:33.887Z,94511.56
2019-05-03T01:22:03.386Z,94516.54
2019-05-03T01:24:32.873Z,94519.77
2019-05-03T01:27:02.345Z,94519.27
2019-05-03T01:29:32.346Z,94518.25
2019-05-03T01:32:02.431Z,94511.91
2019-05-03T01:34:32.593Z,94518.09
2019-05-03T01:37:02.729Z,94521.91
2019-05-03T01:39:32.337Z,94525.44
2019-05-03T01:42:02.664Z,94527.59
2019-05-03T01:44:32.750Z,94523.36
2019-05-03T01:47:04.843Z,94523.96
2019-05-03T01:49:52.032Z,94521.95
2019-05-03T01:52:28.387Z,94520.36
2019-05-03T01:54:57.889Z,94517.16
2019-05-03T01:57:27.375Z,94516.25
2019-05-03T01:59:56.874Z,94522.22
2019-05-03T02:02:39.276Z,94523.24
2019-05-03T02:05:31.905Z,94516.77
2019-05-03T02:08:02.120Z,94523.33
2019-05-03T02:10:32.182Z,94522.10
2019-05-03T02:13:01.846Z,94517.19
2019-05-03T02:15:32.696Z,94514.78
2019-05-03T02:18:02.647Z,94518.40
2019-05-03T02:20:32.500Z,94513.47
2019-05-03T02:23:02.739Z,94515.88
2019-05-03T02:25:32.506Z,94517.18
2019-05-03T02:28:02.119Z,94523.54
2019-05-03T02:30:33.227Z,94517.28
2019-05-03T02:33:04.189Z,94524.64
2019-05-03T02:35:33.899Z,94522.63
2019-05-03T02:38:03.882Z,94520.63
2019-05-03T02:40:34.003Z,94520.71
2019-05-03T02:43:11.638Z,94526.36
2019-05-03T02:46:16.830Z,94528.67
2019-05-03T02:48:55.973Z,94528.26
2019-05-03T02:51:26.175Z,94526.56
2019-05-03T02:53:57.123Z,94521.30
2019-05-03T02:56:26.939Z,94525.73
2019-05-03T02:58:56.423Z,94528.16
2019-05-03T03:01:26.558Z,94534.09
2019-05-03T03:03:57.289Z,94536.20
2019-05-03T03:06:28.252Z,94537.20
2019-05-03T03:08:59.662Z,94544.86
2019-05-03T03:11:30.377Z,94537.51
2019-05-03T03:14:01.248Z,94538.90
2019-05-03T03:16:35.934Z,94545.13
2019-05-03T03:19:06.568Z,94544.13
2019-05-03T03:21:41.877Z,94547.13
2019-05-03T03:24:17.128Z,94541.90
2019-05-03T03:26:49.799Z,94545.74
2019-05-03T03:29:24.985Z,94547.94
2019-05-03T03:32:18.405Z,94549.36
2019-05-03T03:34:56.888Z,94549.25
2019-05-03T03:37:21.897Z,94547.44
2019-05-03T03:39:51.996Z,94547.13
2019-05-03T03:42:25.011Z,94551.78
2019-05-03T03:44:56.323Z,94558.75
2019-05-03T03:47:27.873Z,94557.83
2019-05-03T03:49:58.570Z,94557.13
2019-05-03T03:52:30.412Z,94556.02
2019-05-03T03:55:02.730Z,94555.63
2019-05-03T03:57:35.747Z,94559.14
2019-05-03T04:00:07.267Z,94557.72
2019-05-03T04:02:38.482Z,94557.44
2019-05-03T04:05:08.599Z,94557.67
2019-05-03T04:07:38.844Z,94565.21
2019-05-03T04:10:09.626Z,94565.52
2019-05-03T04:12:40.973Z,94568.55
2019-05-03T04:15:37.139Z,94561.20
2019-05-03T04:18:29.948Z,94567.14
2019-05-03T04:20:59.591Z,94568.64
2019-05-03T04:23:31.983Z,94569.95
2019-05-03T04:26:02.304Z,94574.10
2019-05-03T04:28:32.973Z,94577.13
2019-05-03T04:31:02.443Z,94578.26
2019-05-03T04:33:31.993Z,94577.62
2019-05-03T04:36:01.477Z,94584.16
2019-05-03T04:38:31.015Z,94577.82
2019-05-03T04:41:00.512Z,94583.50
2019-05-03T04:43:30.014Z,94580.37
2019-05-03T04:46:06.776Z,94583.52
2019-05-03T04:48:36.440Z,94586.05
2019-05-03T04:51:06.294Z,94578.16
2019-05-03T04:53:37.430Z,94588.13
2019-05-03T04:56:06.954Z,94582.62
2019-05-03T04:58:36.706Z,94577.65
2019-05-03T05:01:06.681Z,94573.87
2019-05-03T05:03:36.515Z,94567.20
2019-05-03T05:06:06.589Z,94564.55
2019-05-03T05:08:36.251Z,94573.60
2019-05-03T05:11:09.778Z,94570.61
2019-05-03T05:13:37.056Z,94580.42
2019-05-03T05:16:06.598Z,94579.09
2019-05-03T05:18:45.697Z,94583.03
2019-05-03T05:21:18.736Z,94582.45
2019-05-03T05:24:01.678Z,94585.58
2019-05-03T05:26:38.678Z,94584.89
2019-05-03T05:29:10.976Z,94584.68
2019-05-03T05:31:40.439Z,94589.66
2019-05-03T05:34:09.951Z,94595.34
2019-05-03T05:36:39.431Z,94592.34
2019-05-03T05:39:09.477Z,94588.47
2019-05-03T05:41:38.980Z,94586.95
2019-05-03T05:44:08.463Z,94585.03
2019-05-03T05:46:48.429Z,94587.33
2019-05-03T05:49:36.883Z,94589.70
2019-05-03T05:52:06.404Z,94596.53
2019-05-03T05:54:36.291Z,94597.36
2019-05-03T05:57:25.629Z,94600.80
2019-05-03T06:00:01.433Z,94602.56
2019-05-03T06:02:30.951Z,94605.27
2019-05-03T06:05:00.447Z,94607.03
2019-05-03T06:08:04.838Z,94607.52
2019-05-03T06:10:48.905Z,94607.80
2019-05-03T06:13:26.413Z,94609.15
2019-05-03T06:16:15.527Z,94607.32
2019-05-03T06:19:16.174Z,94609.34
2019-05-03T06:21:56.940Z,94610.94
2019-05-03T06:24:31.279Z,94604.77
2019-05-03T06:27:10.218Z,94611.97
2019-05-03T06:29:40.265Z,94614.95
2019-05-03T06:32:28.661Z,94618.50
2019-05-03T06:34:58.160Z,94623.31
2019-05-03T06:37:30.170Z,94615.14
2019-05-03T06:39:59.652Z,94614.66
2019-05-03T06:42:29.162Z,94614.01
2019-05-03T06:44:59.226Z,94619.31
2019-05-03T06:47:29.851Z,94616.44
2019-05-03T06:49:59.384Z,94618.05
2019-05-03T06:52:29.463Z,94613.36
2019-05-03T06:55:00.392Z,94609.77
2019-05-03T06:57:30.444Z,94607.16
2019-05-03T07:00:35.093Z,94603.27
2019-05-03T07:03:15.187Z,94600.21
2019-05-03T07:06:04.438Z,94595.96
2019-05-03T07:08:49.095Z,94601.92
2019-05-03T07:11:18.605Z,94594.98
2019-05-03T07:13:48.110Z,94594.20
2019-05-03T07:16:17.583Z,94588.09
2019-05-03T07:18:47.076Z,94588.19
2019-05-03T07:21:16.557Z,94588.67
2019-05-03T07:23:46.046Z,94587.73
2019-05-03T07:26:15.528Z,94589.88
2019-05-03T07:28:49.319Z,94589.11
2019-05-03T07:31:16.233Z,94583.24
2019-05-03T07:33:45.721Z,94579.08
2019-05-03T07:36:15.504Z,94585.52
2019-05-03T07:38:45.447Z,94588.70
2019-05-03T07:41:15.069Z,94577.55
2019-05-03T07:43:45.161Z,94580.48
2019-05-03T07:46:14.897Z,94580.30
2019-05-03T07:48:45.706Z,94575.70
2019-05-03T07:51:15.266Z,94573.01
2019-05-03T07:53:45.217Z,94574.83
2019-05-03T07:56:16.353Z,94572.44
2019-05-03T07:59:00.538Z,94569.52
2019-05-03T08:01:41.382Z,94564.27
2019-05-03T08:04:10.865Z,94568.54
2019-05-03T08:06:40.337Z,94569.05
2019-05-03T08:09:10.355Z,94558.51
2019-05-03T08:11:39.857Z,94565.64
2019-05-03T08:14:09.334Z,94565.17
2019-05-03T08:16:38.793Z,94561.25
2019-05-03T08:19:08.327Z,94563.48
2019-05-03T08:21:38.990Z,94569.03
2019-05-03T08:24:08.854Z,94567.88
2019-05-03T08:26:38.328Z,94560.78
2019-05-03T08:29:16.026Z,94553.59
2019-05-03T08:32:07.173Z,94548.17
2019-05-03T08:34:55.575Z,94550.54
2019-05-03T08:37:28.186Z,94552.85
2019-05-03T08:39:57.700Z,94533.52
2019-05-03T08:42:27.273Z,94527.94
2019-05-03T08:44:56.742Z,94532.52
2019-05-03T08:47:26.233Z,94533.63
2019-05-03T08:49:55.733Z,94531.30
2019-05-03T08:52:25.249Z,94531.67
2019-05-03T08:54:55.158Z,94529.91
2019-05-03T08:57:25.323Z,94524.08
2019-05-03T08:59:55.147Z,94519.08
2019-05-03T09:02:25.831Z,94514.05
2019-05-03T09:04:55.575Z,94511.51
2019-05-03T09:07:25.490Z,94517.73
2019-05-03T09:10:00.154Z,94513.48
2019-05-03T09:12:48.657Z,94511.94
2019-05-03T09:15:18.166Z,94507.50
2019-05-03T09:17:47.676Z,94503.81
2019-05-03T09:20:17.211Z,94501.71
2019-05-03T09:22:46.689Z,94493.24
2019-05-03T09:25:16.200Z,94487.69
2019-05-03T09:27:45.764Z,94482.93
2019-05-03T09:30:16.683Z,94479.02
2019-05-03T09:32:46.183Z,94480.42
2019-05-03T09:35:29.320Z,94474.36
2019-05-03T09:37:47.249Z,94479.47
2019-05-03T09:40:17.035Z,94472.81
2019-05-03T09:42:46.676Z,94461.44
2019-05-03T09:45:16.968Z,94454.83
2019-05-03T09:47:46.756Z,94447.64
2019-05-03T09:50:16.708Z,94455.36
2019-05-03T09:52:47.058Z,94453.24
2019-05-03T09:55:30.979Z,94444.47
2019-05-03T09:58:00.454Z,94446.59
2019-05-03T10:00:29.940Z,94454.28
2019-05-03T10:02:59.407Z,94451.11
2019-05-03T10:05:29.012Z,94439.67
2019-05-03T10:07:58.497Z,94433.83
2019-05-03T10:10:27.987Z,94431.69
2019-05-03T10:12:57.512Z,94425.55
2019-05-03T10:15:40.302Z,94423.95
2019-05-03T10:18:12.324Z,94422.63
2019-05-03T10:20:41.786Z,94422.34
2019-05-03T10:23:25.536Z,94425.03
2019-05-03T10:25:55.231Z,94413.84
2019-05-03T10:28:25.186Z,94411.97
2019-05-03T10:30:54.865Z,94404.52
2019-05-03T10:33:28.761Z,94394.93
2019-05-03T10:35:58.475Z,94389.86
2019-05-03T10:38:27.965Z,94395.70
2019-05-03T10:40:57.476Z,94390.37
2019-05-03T10:43:26.983Z,94381.81
2019-05-03T10:45:56.500Z,94384.71
2019-05-03T10:48:25.980Z,94384.21
2019-05-03T10:50:56.416Z,94391.60
2019-05-03T10:53:30.795Z,94379.12
2019-05-03T10:56:31.366Z,94377.28
2019-05-03T10:59:02.950Z,94371.62
2019-05-03T11:01:45.161Z,94375.30
2019-05-03T11:04:14.855Z,94364.88
2019-05-03T11:06:45.688Z,94372.27
2019-05-03T11:09:15.537Z,94367.75
2019-05-03T11:11:45.496Z,94372.59
2019-05-03T11:14:15.134Z,94374.55
2019-05-03T11:16:46.030Z,94370.55
2019-05-03T11:19:15.952Z,94362.33
2019-05-03T11:21:45.668Z,94354.86
2019-05-03T11:24:15.401Z,94343.33
2019-05-03T11:26:46.535Z,94339.82
2019-05-03T11:29:16.086Z,94340.56
2019-05-03T11:32:16.470Z,94344.28
2019-05-03T11:34:55.254Z,94338.95
2019-05-03T11:37:45.252Z,94338.69
2019-05-03T11:40:15.703Z,94332.80
2019-05-03T11:42:45.469Z,94324.68
2019-05-03T11:45:15.398Z,94327.80
2019-05-03T11:47:45.762Z,94328.06
2019-05-03T11:50:15.817Z,94330.27
2019-05-03T11:52:47.186Z,94325.22
2019-05-03T11:55:16.506Z,94318.54
2019-05-03T11:57:45.973Z,94316.08
2019-05-03T12:00:21.594Z,94313.66
2019-05-03T12:03:22.175Z,94304.27
2019-05-03T12:05:55.234Z,94305.44
2019-05-03T12:08:25.277Z,94285.58
2019-05-03T12:11:00.623Z,94286.99
2019-05-03T12:13:29.638Z,94284.64
2019-05-03T12:15:59.656Z,94289.66
2019-05-03T12:18:29.355Z,94276.02
2019-05-03T12:21:00.159Z,94270.72
2019-05-03T12:23:31.866Z,94266.99
2019-05-03T12:26:02.414Z,94269.05
2019-05-03T12:28:35.075Z,94266.18
2019-05-03T12:31:04.859Z,94266.11
2019-05-03T12:33:35.482Z,94262.56
2019-05-03T12:36:05.691Z,94256.34
2019-05-03T12:38:35.238Z,94256.48
2019-05-03T12:41:05.604Z,94253.34
2019-05-03T12:43:35.274Z,94251.14
2019-05-03T12:46:05.224Z,94244.47
2019-05-03T12:48:35.490Z,94241.56
2019-05-03T12:51:06.489Z,94243.88
2019-05-03T12:53:36.641Z,94228.41
2019-05-03T12:56:11.525Z,94230.36
2019-05-03T12:58:55.136Z,94223.63
2019-05-03T13:01:42.292Z,94228.02
2019-05-03T13:04:15.305Z,94232.96
2019-05-03T13:06:48.807Z,94228.16
2019-05-03T13:09:18.311Z,94221.00
2019-05-03T13:11:54.769Z,94224.72
2019-05-03T13:14:21.209Z,94227.95
2019-05-03T13:16:50.679Z,94224.81
2019-05-03T13:19:20.136Z,94214.95
2019-05-03T13:21:49.603Z,94217.44
2019-05-03T13:24:23.341Z,94216.29
2019-05-03T13:26:50.388Z,94212.15
2019-05-03T13:29:19.847Z,94212.92
2019-05-03T13:32:01.245Z,94212.19
2019-05-03T13:34:20.532Z,94207.42
2019-05-03T13:36:49.998Z,94210.88
2019-05-03T13:39:19.464Z,94212.38
2019-05-03T13:41:48.970Z,94208.06
2019-05-03T13:44:18.456Z,94201.50
2019-05-03T13:46:47.916Z,94197.30
2019-05-03T13:49:17.408Z,94200.34
2019-05-03T13:51:46.924Z,94189.27
2019-05-03T13:54:16.393Z,94190.09
2019-05-03T13:56:45.859Z,94190.53
2019-05-03T13:59:19.916Z,94196.56
2019-05-03T14:01:46.603Z,94186.84
2019-05-03T14:04:16.063Z,94196.72
2019-05-03T14:06:45.544Z,94194.61
2019-05-03T14:09:15.046Z,94194.52
2019-05-03T14:11:44.899Z,94190.20
2019-05-03T14:14:15.252Z,94190.83
2019-05-03T14:16:45.274Z,94185.28
2019-05-03T14:19:20.541Z,94186.16
2019-05-03T14:21:54.668Z,94177.37
2019-05-03T14:24:24.664Z,94180.59
2019-05-03T14:26:55.146Z,94183.45
2019-05-03T14:29:25.273Z,94173.41
2019-05-03T14:31:54.884Z,94171.00
2019-05-03T14:34:25.680Z,94180.13
2019-05-03T14:36:55.591Z,94170.73
2019-05-03T14:39:25.514Z,94172.06
2019-05-03T14:41:55.579Z,94173.25
2019-05-03T14:44:25.430Z,94178.97
2019-05-03T14:46:56.609Z,94170.31
2019-05-03T14:49:26.263Z,94175.38
2019-05-03T14:51:56.694Z,94173.52
2019-05-03T14:54:28.846Z,94168.40
2019-05-03T14:57:14.583Z,94172.89
2019-05-03T15:00:16.962Z,94172.63
2019-05-03T15:02:58.046Z,94172.19
2019-05-03T15:05:27.648Z,94168.63
2019-05-03T15:07:57.148Z,94165.70
2019-05-03T15:10:26.635Z,94168.92
2019-05-03T15:12:56.150Z,94164.36
2019-05-03T15:15:28.588Z,94163.80
2019-05-03T15:17:56.909Z,94156.77
2019-05-03T15:20:26.443Z,94156.22
2019-05-03T15:22:55.970Z,94155.13
2019-05-03T15:25:25.527Z,94157.06
2019-05-03T15:27:55.478Z,94161.16
2019-05-03T15:30:25.557Z,94169.02
2019-05-03T15:33:00.413Z,94182.25
2019-05-03T15:35:26.439Z,94185.70
2019-05-03T15:37:55.964Z,94185.30
2019-05-03T15:40:26.240Z,94187.20
2019-05-03T15:43:01.697Z,94186.95
2019-05-03T15:45:54.644Z,94180.81
2019-05-03T15:48:26.969Z,94177.70
2019-05-03T15:50:56.462Z,94175.10
2019-05-03T15:53:25.927Z,94185.55
2019-05-03T15:55:55.469Z,94182.64
2019-05-03T15:58:25.003Z,94178.91
2019-05-03T16:00:55.445Z,94180.78
2019-05-03T16:03:25.396Z,94181.09
2019-05-03T16:05:55.630Z,94182.68
2019-05-03T16:08:25.369Z,94178.37
2019-05-03T16:10:55.155Z,94186.41
2019-05-03T16:13:25.212Z,94179.25
2019-05-03T16:15:55.407Z,94189.97
2019-05-03T16:18:25.046Z,94183.89
2019-05-03T16:20:54.821Z,94185.77
2019-05-03T16:23:25.016Z,94188.73
2019-05-03T16:25:54.908Z,94182.62
2019-05-03T16:28:33.977Z,94184.49
2019-05-03T16:31:09.562Z,94185.82
2019-05-03T16:33:39.179Z,94180.23
2019-05-03T16:36:08.679Z,94184.80
2019-05-03T16:38:38.169Z,94181.08
2019-05-03T16:41:07.642Z,94181.62
2019-05-03T16:43:37.143Z,94179.80
2019-05-03T16:46:06.606Z,94179.00
2019-05-03T16:48:36.120Z,94184.08
2019-05-03T16:51:05.575Z,94181.77
2019-05-03T16:53:35.162Z,94184.44
2019-05-03T16:56:04.655Z,94182.05
2019-05-03T16:58:35.431Z,94190.03
2019-05-03T17:01:05.217Z,94189.23
2019-05-03T17:03:42.821Z,94194.85
2019-05-03T17:06:46.520Z,94193.26
2019-05-03T17:09:35.356Z,94191.40
2019-05-03T17:12:15.165Z,94193.03
2019-05-03T17:14:44.743Z,94192.77
2019-05-03T17:17:14.864Z,94199.41
2019-05-03T17:19:44.795Z,94204.77
2019-05-03T17:22:17.300Z,94206.12
2019-05-03T17:24:46.742Z,94205.61
2019-05-03T17:27:16.237Z,94210.66
2019-05-03T17:29:45.762Z,94206.42
2019-05-03T17:32:15.459Z,94208.25
2019-05-03T17:34:45.327Z,94210.94
2019-05-03T17:37:15.223Z,94215.45
2019-05-03T17:40:06.513Z,94226.61
2019-05-03T17:42:54.709Z,94230.37
2019-05-03T17:45:29.829Z,94224.79
2019-05-03T17:47:59.299Z,94231.16
2019-05-03T17:50:28.823Z,94239.14
2019-05-03T17:53:20.042Z,94238.05
2019-05-03T17:56:04.661Z,94238.33
2019-05-03T17:58:46.940Z,94246.56
2019-05-03T18:01:35.381Z,94250.23
2019-05-03T18:04:12.461Z,94251.26
2019-05-03T18:06:48.663Z,94262.11
2019-05-03T18:09:23.903Z,94266.89
2019-05-03T18:11:55.676Z,94274.61
2019-05-03T18:14:28.019Z,94275.63
2019-05-03T18:16:59.332Z,94280.95
2019-05-03T18:19:28.781Z,94285.98
2019-05-03T18:21:58.275Z,94293.70
2019-05-03T18:24:27.757Z,94303.77
2019-05-03T18:27:00.113Z,94300.33
2019-05-03T18:29:29.591Z,94303.24
2019-05-03T18:31:59.125Z,94308.00
2019-05-03T18:34:28.577Z,94311.94
2019-05-03T18:36:58.125Z,94319.08
2019-05-03T18:39:27.700Z,94320.43
2019-05-03T18:41:57.169Z,94319.89
2019-05-03T18:44:34.592Z,94325.45
2019-05-03T18:47:10.404Z,94327.83
2019-05-03T18:49:39.906Z,94324.91
2019-05-03T18:52:09.395Z,94322.27
2019-05-03T18:54:38.861Z,94317.77
2019-05-03T18:57:08.359Z,94314.58
2019-05-03T18:59:37.884Z,94319.86
2019-05-03T19:02:07.475Z,94324.09
2019-05-03T19:04:54.982Z,94333.66
2019-05-03T19:07:42.637Z,94332.05
2019-05-03T19:10:40.431Z,94335.76
2019-05-03T19:13:35.011Z,94331.76
2019-05-03T19:16:15.022Z,94337.84
2019-05-03T19:18:45.379Z,94339.66
2019-05-03T19:21:15.114Z,94346.48
2019-05-03T19:23:44.921Z,94346.16
2019-05-03T19:26:14.576Z,94356.13
2019-05-03T19:28:44.453Z,94355.00
2019-05-03T19:31:14.108Z,94351.83
2019-05-03T19:33:45.696Z,94361.63
2019-05-03T19:36:15.052Z,94353.40
2019-05-03T19:38:44.860Z,94357.09
2019-05-03T19:41:16.220Z,94360.25
2019-05-03T19:43:45.889Z,94359.97
2019-05-03T19:46:16.602Z,94359.94
2019-05-03T19:48:46.258Z,94365.00
2019-05-03T19:51:16.969Z,94357.56
2019-05-03T19:53:55.129Z,94353.26
2019-05-03T19:56:25.610Z,94358.03
2019-05-03T19:59:04.641Z,94360.41
2019-05-03T20:01:59.316Z,94362.47
2019-05-03T20:04:43.494Z,94355.38
2019-05-03T20:07:45.185Z,94357.51
2019-05-03T20:10:17.806Z,94358.03
2019-05-03T20:12:46.789Z,94364.41
2019-05-03T20:15:16.390Z,94380.56
2019-05-03T20:17:56.589Z,94378.41
2019-05-03T20:20:17.686Z,94383.61
2019-05-03T20:22:47.680Z,94384.86
2019-05-03T20:25:17.789Z,94385.59
2019-05-03T20:27:47.412Z,94382.84
2019-05-03T20:30:17.530Z,94385.06
2019-05-03T20:32:47.327Z,94379.65
2019-05-03T20:35:19.349Z,94387.23
2019-05-03T20:37:48.242Z,94395.70
2019-05-03T20:40:17.888Z,94390.64
2019-05-03T20:42:54.435Z,94383.94
2019-05-03T20:45:29.017Z,94380.55
2019-05-03T20:48:00.037Z,94373.36
2019-05-03T20:50:29.686Z,94374.59
2019-05-03T20:52:59.297Z,94371.91
2019-05-03T20:55:28.971Z,94371.91
2019-05-03T20:57:58.656Z,94364.25
2019-05-03T21:00:28.209Z,94369.81
2019-05-03T21:02:57.743Z,94366.50
2019-05-03T21:05:31.811Z,94367.78
2019-05-03T21:07:58.624Z,94359.52
2019-05-03T21:10:28.107Z,94369.81
2019-05-03T21:12:57.585Z,94368.48
2019-05-03T21:15:49.031Z,94366.98
2019-05-03T21:18:37.453Z,94368.48
2019-05-03T21:21:11.714Z,94375.05
2019-05-03T21:23:44.974Z,94368.50
2019-05-03T21:26:16.646Z,94366.55
2019-05-03T21:28:45.737Z,94372.27
2019-05-03T21:31:15.713Z,94371.70
2019-05-03T21:33:45.297Z,94375.63
2019-05-03T21:36:15.171Z,94382.70
2019-05-03T21:38:44.776Z,94378.39
2019-05-03T21:41:15.678Z,94383.11
2019-05-03T21:43:45.328Z,94376.91
2019-05-03T21:46:25.536Z,94378.59
2019-05-03T21:49:11.696Z,94384.95
2019-05-03T21:51:41.165Z,94377.38
2019-05-03T21:54:10.678Z,94375.53
2019-05-03T21:56:40.136Z,94375.91
2019-05-03T21:59:09.628Z,94376.33
2019-05-03T22:01:42.630Z,94374.13
2019-05-03T22:04:12.060Z,94374.00
2019-05-03T22:06:41.544Z,94372.69
2019-05-03T22:09:11.130Z,94375.27
2019-05-03T22:11:40.625Z,94377.86
2019-05-03T22:14:15.616Z,94377.78
2019-05-03T22:17:06.962Z,94380.31
2019-05-03T22:19:36.422Z,94381.34
2019-05-03T22:22:25.425Z,94380.80
2019-05-03T22:24:56.962Z,94384.37
2019-05-03T22:27:29.341Z,94387.16
2019-05-03T22:29:58.806Z,94379.64
2019-05-03T22:32:28.267Z,94374.94
2019-05-03T22:34:57.770Z,94377.63
2019-05-03T22:37:27.238Z,94377.92
2019-05-03T22:39:56.740Z,94375.59
2019-05-03T22:42:26.234Z,94384.83
2019-05-03T22:44:55.709Z,94378.48
2019-05-03T22:47:25.434Z,94376.37
2019-05-03T22:49:54.942Z,94370.00
2019-05-03T22:52:25.785Z,94367.36
2019-05-03T22:54:55.582Z,94363.81
2019-05-03T22:57:25.047Z,94370.75
2019-05-03T22:59:54.539Z,94366.62
2019-05-03T23:02:24.941Z,94364.16
2019-05-03T23:04:55.397Z,94365.76
2019-05-03T23:07:25.159Z,94365.70
2019-05-03T23:09:54.625Z,94358.82
2019-05-03T23:12:24.110Z,94357.33
2019-05-03T23:14:55.090Z,94356.23
2019-05-03T23:17:25.439Z,94357.89
2019-05-03T23:19:59.840Z,94350.73
2019-05-03T23:22:31.422Z,94358.70
2019-05-03T23:25:00.913Z,94359.97
2019-05-03T23:27:30.395Z,94364.52
2019-05-03T23:29:59.844Z,94360.04
2019-05-03T23:32:29.309Z,94348.22
2019-05-03T23:34:59.244Z,94348.80
2019-05-03T23:37:28.766Z,94345.92
2019-05-03T23:39:58.256Z,94345.69
2019-05-03T23:42:27.752Z,94347.36
2019-05-03T23:44:57.204Z,94345.83
2019-05-03T23:47:35.111Z,94350.30
2019-05-03T23:50:06.068Z,94352.60
2019-05-03T23:52:36.390Z,94350.40
2019-05-03T23:55:25.908Z,94347.81
2019-05-03T23:57:55.526Z,94343.00
